LEAS 262230Z AUTO 11004KT 080V140 9999 4300 NSC 12/05 Q1008